sensor_id;sensor_type;location;lat;lon;timestamp;P1;durP1;ratioP1;P2;durP2;ratioP2
76204;SDS011;64986;55.672;37.628;2023-03-31T00:00:31;5.45;;;3.58;;
76204;SDS011;64986;55.672;37.628;2023-03-31T00:02:57;9.50;;;3.95;;
76204;SDS011;64986;55.672;37.628;2023-03-31T00:05:23;5.55;;;3.20;;
76204;SDS011;64986;55.672;37.628;2023-03-31T00:07:56;4.47;;;3.47;;
76204;SDS011;64986;55.672;37.628;2023-03-31T00:12:57;3.72;;;3.13;;
76204;SDS011;64986;55.672;37.628;2023-03-31T00:15:24;3.28;;;2.70;;
76204;SDS011;64986;55.672;37.628;2023-03-31T00:17:50;4.60;;;3.10;;
76204;SDS011;64986;55.672;37.628;2023-03-31T00:20:15;4.60;;;2.80;;
76204;SDS011;64986;55.672;37.628;2023-03-31T00:22:41;3.70;;;3.10;;
76204;SDS011;64986;55.672;37.628;2023-03-31T00:25:11;4.57;;;2.72;;
76204;SDS011;64986;55.672;37.628;2023-03-31T00:27:37;6.25;;;3.53;;
76204;SDS011;64986;55.672;37.628;2023-03-31T00:30:06;5.25;;;3.92;;
76204;SDS011;64986;55.672;37.628;2023-03-31T00:32:32;4.78;;;3.40;;
76204;SDS011;64986;55.672;37.628;2023-03-31T00:34:58;6.75;;;3.47;;
76204;SDS011;64986;55.672;37.628;2023-03-31T00:37:26;6.15;;;3.95;;
76204;SDS011;64986;55.672;37.628;2023-03-31T00:39:52;4.50;;;3.08;;
76204;SDS011;64986;55.672;37.628;2023-03-31T00:42:17;4.00;;;2.90;;
76204;SDS011;64986;55.672;37.628;2023-03-31T00:47:52;7.47;;;3.50;;
76204;SDS011;64986;55.672;37.628;2023-03-31T00:50:23;6.45;;;3.15;;
76204;SDS011;64986;55.672;37.628;2023-03-31T00:53:04;8.13;;;4.13;;
76204;SDS011;64986;55.672;37.628;2023-03-31T00:55:37;4.75;;;3.63;;
76204;SDS011;64986;55.672;37.628;2023-03-31T00:58:11;5.22;;;4.13;;
76204;SDS011;64986;55.672;37.628;2023-03-31T01:00:40;5.90;;;3.50;;
76204;SDS011;64986;55.672;37.628;2023-03-31T01:03:06;4.85;;;3.65;;
76204;SDS011;64986;55.672;37.628;2023-03-31T01:08:29;6.37;;;3.70;;
76204;SDS011;64986;55.672;37.628;2023-03-31T01:10:58;4.40;;;3.58;;
76204;SDS011;64986;55.672;37.628;2023-03-31T01:13:26;5.35;;;3.25;;
76204;SDS011;64986;55.672;37.628;2023-03-31T01:15:54;3.85;;;3.08;;
76204;SDS011;64986;55.672;37.628;2023-03-31T01:18:20;6.60;;;3.15;;
76204;SDS011;64986;55.672;37.628;2023-03-31T01:27:05;3.63;;;2.63;;
76204;SDS011;64986;55.672;37.628;2023-03-31T01:38:32;8.18;;;3.63;;
76204;SDS011;64986;55.672;37.628;2023-03-31T01:46:27;4.68;;;3.40;;
76204;SDS011;64986;55.672;37.628;2023-03-31T01:49:00;7.18;;;3.08;;
76204;SDS011;64986;55.672;37.628;2023-03-31T01:52:03;3.15;;;2.33;;
76204;SDS011;64986;55.672;37.628;2023-03-31T01:54:38;4.22;;;2.30;;
76204;SDS011;64986;55.672;37.628;2023-03-31T01:57:08;3.85;;;3.08;;
76204;SDS011;64986;55.672;37.628;2023-03-31T02:00:24;3.55;;;2.60;;
76204;SDS011;64986;55.672;37.628;2023-03-31T02:02:37;3.15;;;2.53;;
76204;SDS011;64986;55.672;37.628;2023-03-31T02:05:22;3.42;;;2.38;;
76204;SDS011;64986;55.672;37.628;2023-03-31T02:08:10;7.40;;;3.10;;
76204;SDS011;64986;55.672;37.628;2023-03-31T02:10:41;5.72;;;2.15;;
76204;SDS011;64986;55.672;37.628;2023-03-31T02:13:10;2.65;;;2.15;;
76204;SDS011;64986;55.672;37.628;2023-03-31T02:15:39;5.80;;;2.47;;
76204;SDS011;64986;55.672;37.628;2023-03-31T02:18:09;5.25;;;3.10;;
76204;SDS011;64986;55.672;37.628;2023-03-31T02:20:41;2.67;;;1.85;;
76204;SDS011;64986;55.672;37.628;2023-03-31T02:23:11;6.88;;;2.33;;
76204;SDS011;64986;55.672;37.628;2023-03-31T02:25:40;3.67;;;2.25;;
76204;SDS011;64986;55.672;37.628;2023-03-31T02:28:13;2.28;;;1.70;;
76204;SDS011;64986;55.672;37.628;2023-03-31T02:33:12;2.63;;;1.88;;
76204;SDS011;64986;55.672;37.628;2023-03-31T02:35:37;3.00;;;1.83;;
76204;SDS011;64986;55.672;37.628;2023-03-31T02:38:03;2.90;;;2.17;;
76204;SDS011;64986;55.672;37.628;2023-03-31T02:40:30;3.22;;;1.27;;
76204;SDS011;64986;55.672;37.628;2023-03-31T02:42:56;3.92;;;2.25;;
76204;SDS011;64986;55.672;37.628;2023-03-31T02:48:08;3.25;;;1.80;;
76204;SDS011;64986;55.672;37.628;2023-03-31T02:50:43;2.75;;;1.95;;
76204;SDS011;64986;55.672;37.628;2023-03-31T02:53:24;5.72;;;2.10;;
76204;SDS011;64986;55.672;37.628;2023-03-31T02:59:12;2.72;;;1.77;;
76204;SDS011;64986;55.672;37.628;2023-03-31T03:04:36;4.20;;;1.70;;
76204;SDS011;64986;55.672;37.628;2023-03-31T03:07:12;2.95;;;2.22;;
76204;SDS011;64986;55.672;37.628;2023-03-31T03:15:25;4.55;;;2.22;;
76204;SDS011;64986;55.672;37.628;2023-03-31T03:17:56;2.47;;;2.08;;
76204;SDS011;64986;55.672;37.628;2023-03-31T03:20:22;3.10;;;2.20;;
76204;SDS011;64986;55.672;37.628;2023-03-31T03:22:48;6.28;;;2.20;;
76204;SDS011;64986;55.672;37.628;2023-03-31T03:25:14;2.72;;;2.00;;
76204;SDS011;64986;55.672;37.628;2023-03-31T03:27:45;4.07;;;2.45;;
76204;SDS011;64986;55.672;37.628;2023-03-31T03:30:11;2.28;;;1.83;;
76204;SDS011;64986;55.672;37.628;2023-03-31T03:32:38;2.92;;;2.05;;
76204;SDS011;64986;55.672;37.628;2023-03-31T03:35:04;3.53;;;2.25;;
76204;SDS011;64986;55.672;37.628;2023-03-31T03:37:30;2.30;;;2.03;;
76204;SDS011;64986;55.672;37.628;2023-03-31T03:39:57;3.00;;;2.10;;
76204;SDS011;64986;55.672;37.628;2023-03-31T03:42:23;7.20;;;1.90;;
76204;SDS011;64986;55.672;37.628;2023-03-31T03:44:48;2.53;;;1.65;;
76204;SDS011;64986;55.672;37.628;2023-03-31T03:47:14;1.67;;;1.52;;
76204;SDS011;64986;55.672;37.628;2023-03-31T03:49:40;2.30;;;1.70;;
76204;SDS011;64986;55.672;37.628;2023-03-31T03:52:05;2.47;;;1.73;;
76204;SDS011;64986;55.672;37.628;2023-03-31T03:54:31;2.17;;;1.60;;
76204;SDS011;64986;55.672;37.628;2023-03-31T03:56:57;5.70;;;1.80;;
76204;SDS011;64986;55.672;37.628;2023-03-31T03:59:22;4.18;;;2.20;;
76204;SDS011;64986;55.672;37.628;2023-03-31T04:01:48;4.78;;;2.25;;
76204;SDS011;64986;55.672;37.628;2023-03-31T04:04:14;4.10;;;1.88;;
76204;SDS011;64986;55.672;37.628;2023-03-31T04:06:40;2.70;;;2.20;;
76204;SDS011;64986;55.672;37.628;2023-03-31T04:09:06;3.08;;;1.10;;
76204;SDS011;64986;55.672;37.628;2023-03-31T04:11:31;2.90;;;1.70;;
76204;SDS011;64986;55.672;37.628;2023-03-31T04:13:57;5.25;;;2.38;;
76204;SDS011;64986;55.672;37.628;2023-03-31T04:16:22;2.50;;;1.70;;
76204;SDS011;64986;55.672;37.628;2023-03-31T04:18:50;9.70;;;2.08;;
76204;SDS011;64986;55.672;37.628;2023-03-31T04:21:17;2.47;;;2.08;;
76204;SDS011;64986;55.672;37.628;2023-03-31T04:23:49;5.28;;;2.20;;
76204;SDS011;64986;55.672;37.628;2023-03-31T04:26:23;5.43;;;2.20;;
76204;SDS011;64986;55.672;37.628;2023-03-31T04:29:06;2.95;;;1.70;;
76204;SDS011;64986;55.672;37.628;2023-03-31T04:31:33;10.75;;;3.20;;
76204;SDS011;64986;55.672;37.628;2023-03-31T04:34:02;5.90;;;2.40;;
76204;SDS011;64986;55.672;37.628;2023-03-31T04:36:32;4.72;;;2.47;;
76204;SDS011;64986;55.672;37.628;2023-03-31T04:39:01;3.30;;;2.58;;
76204;SDS011;64986;55.672;37.628;2023-03-31T04:41:27;6.22;;;2.05;;
76204;SDS011;64986;55.672;37.628;2023-03-31T04:43:52;6.80;;;2.10;;
76204;SDS011;64986;55.672;37.628;2023-03-31T04:46:18;5.63;;;2.08;;
76204;SDS011;64986;55.672;37.628;2023-03-31T04:48:44;4.20;;;2.30;;
76204;SDS011;64986;55.672;37.628;2023-03-31T04:51:10;3.88;;;1.95;;
76204;SDS011;64986;55.672;37.628;2023-03-31T04:53:35;9.05;;;2.20;;
76204;SDS011;64986;55.672;37.628;2023-03-31T04:56:01;7.18;;;2.65;;
76204;SDS011;64986;55.672;37.628;2023-03-31T04:58:27;4.38;;;2.35;;
76204;SDS011;64986;55.672;37.628;2023-03-31T05:00:53;9.30;;;2.53;;
76204;SDS011;64986;55.672;37.628;2023-03-31T05:03:19;7.95;;;3.40;;
76204;SDS011;64986;55.672;37.628;2023-03-31T05:05:45;5.15;;;3.22;;
76204;SDS011;64986;55.672;37.628;2023-03-31T05:08:11;8.57;;;4.03;;
76204;SDS011;64986;55.672;37.628;2023-03-31T05:10:36;6.65;;;3.25;;
76204;SDS011;64986;55.672;37.628;2023-03-31T05:13:02;6.32;;;3.50;;
76204;SDS011;64986;55.672;37.628;2023-03-31T05:15:27;8.70;;;4.40;;
76204;SDS011;64986;55.672;37.628;2023-03-31T05:17:53;7.65;;;4.57;;
76204;SDS011;64986;55.672;37.628;2023-03-31T05:20:19;10.30;;;5.38;;
76204;SDS011;64986;55.672;37.628;2023-03-31T05:22:44;13.57;;;6.05;;
76204;SDS011;64986;55.672;37.628;2023-03-31T05:25:11;14.27;;;5.20;;
76204;SDS011;64986;55.672;37.628;2023-03-31T05:27:43;10.82;;;5.25;;
76204;SDS011;64986;55.672;37.628;2023-03-31T05:30:11;8.68;;;4.40;;
76204;SDS011;64986;55.672;37.628;2023-03-31T05:32:37;11.40;;;4.40;;
76204;SDS011;64986;55.672;37.628;2023-03-31T05:35:03;16.95;;;4.13;;
76204;SDS011;64986;55.672;37.628;2023-03-31T05:37:29;14.40;;;6.28;;
76204;SDS011;64986;55.672;37.628;2023-03-31T05:39:55;10.82;;;4.82;;
76204;SDS011;64986;55.672;37.628;2023-03-31T05:42:21;16.83;;;4.80;;
76204;SDS011;64986;55.672;37.628;2023-03-31T05:44:47;7.35;;;3.58;;
76204;SDS011;64986;55.672;37.628;2023-03-31T05:47:12;4.93;;;3.17;;
76204;SDS011;64986;55.672;37.628;2023-03-31T05:49:38;3.80;;;2.65;;
76204;SDS011;64986;55.672;37.628;2023-03-31T05:52:04;6.72;;;3.15;;
76204;SDS011;64986;55.672;37.628;2023-03-31T05:54:31;10.13;;;5.28;;
76204;SDS011;64986;55.672;37.628;2023-03-31T05:56:56;4.88;;;3.55;;
76204;SDS011;64986;55.672;37.628;2023-03-31T05:59:22;6.15;;;3.88;;
76204;SDS011;64986;55.672;37.628;2023-03-31T06:01:48;5.82;;;3.90;;
76204;SDS011;64986;55.672;37.628;2023-03-31T06:04:13;7.75;;;3.65;;
76204;SDS011;64986;55.672;37.628;2023-03-31T06:06:39;5.28;;;3.20;;
76204;SDS011;64986;55.672;37.628;2023-03-31T06:09:04;3.78;;;3.17;;
76204;SDS011;64986;55.672;37.628;2023-03-31T06:11:31;4.28;;;2.88;;
76204;SDS011;64986;55.672;37.628;2023-03-31T06:13:56;9.30;;;3.28;;
76204;SDS011;64986;55.672;37.628;2023-03-31T06:16:22;6.65;;;2.67;;
76204;SDS011;64986;55.672;37.628;2023-03-31T06:18:47;6.25;;;3.25;;
76204;SDS011;64986;55.672;37.628;2023-03-31T06:21:16;6.47;;;2.95;;
76204;SDS011;64986;55.672;37.628;2023-03-31T06:23:42;8.43;;;2.53;;
76204;SDS011;64986;55.672;37.628;2023-03-31T06:26:11;8.95;;;3.08;;
76204;SDS011;64986;55.672;37.628;2023-03-31T06:28:43;5.20;;;2.88;;
76204;SDS011;64986;55.672;37.628;2023-03-31T06:31:11;14.23;;;3.90;;
76204;SDS011;64986;55.672;37.628;2023-03-31T06:33:38;5.55;;;3.00;;
76204;SDS011;64986;55.672;37.628;2023-03-31T06:36:06;4.80;;;3.13;;
76204;SDS011;64986;55.672;37.628;2023-03-31T06:38:32;3.97;;;2.08;;
76204;SDS011;64986;55.672;37.628;2023-03-31T06:40:59;6.20;;;3.00;;
76204;SDS011;64986;55.672;37.628;2023-03-31T06:43:25;6.55;;;3.70;;
76204;SDS011;64986;55.672;37.628;2023-03-31T06:45:54;7.57;;;2.88;;
76204;SDS011;64986;55.672;37.628;2023-03-31T06:48:21;4.28;;;3.00;;
76204;SDS011;64986;55.672;37.628;2023-03-31T06:50:47;4.28;;;3.10;;
76204;SDS011;64986;55.672;37.628;2023-03-31T06:53:14;4.65;;;2.85;;
76204;SDS011;64986;55.672;37.628;2023-03-31T06:55:39;7.57;;;3.45;;
76204;SDS011;64986;55.672;37.628;2023-03-31T06:58:05;8.05;;;3.58;;
76204;SDS011;64986;55.672;37.628;2023-03-31T07:00:31;6.28;;;3.28;;
76204;SDS011;64986;55.672;37.628;2023-03-31T07:02:57;6.50;;;3.30;;
76204;SDS011;64986;55.672;37.628;2023-03-31T07:05:23;5.20;;;3.53;;
76204;SDS011;64986;55.672;37.628;2023-03-31T07:07:55;6.53;;;2.60;;
76204;SDS011;64986;55.672;37.628;2023-03-31T07:10:21;5.65;;;3.17;;
76204;SDS011;64986;55.672;37.628;2023-03-31T07:12:48;4.68;;;3.15;;
76204;SDS011;64986;55.672;37.628;2023-03-31T07:15:17;6.40;;;3.22;;
76204;SDS011;64986;55.672;37.628;2023-03-31T07:17:43;5.60;;;3.85;;
76204;SDS011;64986;55.672;37.628;2023-03-31T07:20:09;8.13;;;3.63;;
76204;SDS011;64986;55.672;37.628;2023-03-31T07:22:45;5.57;;;3.05;;
76204;SDS011;64986;55.672;37.628;2023-03-31T07:25:14;8.23;;;3.63;;
76204;SDS011;64986;55.672;37.628;2023-03-31T07:27:41;18.35;;;5.13;;
76204;SDS011;64986;55.672;37.628;2023-03-31T07:30:15;7.05;;;3.97;;
76204;SDS011;64986;55.672;37.628;2023-03-31T07:32:47;6.80;;;3.85;;
76204;SDS011;64986;55.672;37.628;2023-03-31T07:35:14;8.32;;;4.38;;
76204;SDS011;64986;55.672;37.628;2023-03-31T07:37:41;6.15;;;4.05;;
76204;SDS011;64986;55.672;37.628;2023-03-31T07:40:09;7.45;;;3.63;;
76204;SDS011;64986;55.672;37.628;2023-03-31T07:42:37;13.88;;;5.15;;
76204;SDS011;64986;55.672;37.628;2023-03-31T07:45:02;6.65;;;3.25;;
76204;SDS011;64986;55.672;37.628;2023-03-31T07:47:30;6.32;;;3.85;;
76204;SDS011;64986;55.672;37.628;2023-03-31T07:49:56;6.20;;;4.07;;
76204;SDS011;64986;55.672;37.628;2023-03-31T07:52:21;6.38;;;4.32;;
76204;SDS011;64986;55.672;37.628;2023-03-31T07:54:47;13.43;;;4.47;;
76204;SDS011;64986;55.672;37.628;2023-03-31T07:57:13;8.75;;;4.00;;
76204;SDS011;64986;55.672;37.628;2023-03-31T07:59:40;15.13;;;4.63;;
76204;SDS011;64986;55.672;37.628;2023-03-31T08:02:06;9.70;;;5.72;;
76204;SDS011;64986;55.672;37.628;2023-03-31T08:04:32;10.95;;;5.32;;
76204;SDS011;64986;55.672;37.628;2023-03-31T08:06:57;11.77;;;5.38;;
76204;SDS011;64986;55.672;37.628;2023-03-31T08:09:23;17.45;;;5.70;;
76204;SDS011;64986;55.672;37.628;2023-03-31T08:11:48;8.05;;;4.68;;
76204;SDS011;64986;55.672;37.628;2023-03-31T08:14:14;15.65;;;6.10;;
76204;SDS011;64986;55.672;37.628;2023-03-31T08:16:40;13.48;;;4.85;;
76204;SDS011;64986;55.672;37.628;2023-03-31T08:19:06;5.88;;;4.15;;
76204;SDS011;64986;55.672;37.628;2023-03-31T08:21:31;6.32;;;4.53;;
76204;SDS011;64986;55.672;37.628;2023-03-31T08:23:57;15.20;;;6.05;;
76204;SDS011;64986;55.672;37.628;2023-03-31T08:26:23;7.97;;;4.68;;
76204;SDS011;64986;55.672;37.628;2023-03-31T08:28:49;11.45;;;5.00;;
76204;SDS011;64986;55.672;37.628;2023-03-31T08:31:16;4.97;;;3.65;;
76204;SDS011;64986;55.672;37.628;2023-03-31T08:33:44;10.40;;;4.55;;
76204;SDS011;64986;55.672;37.628;2023-03-31T08:36:10;7.55;;;4.30;;
76204;SDS011;64986;55.672;37.628;2023-03-31T08:38:37;8.52;;;3.90;;
76204;SDS011;64986;55.672;37.628;2023-03-31T08:41:06;14.25;;;4.80;;
76204;SDS011;64986;55.672;37.628;2023-03-31T08:43:44;6.40;;;3.80;;
76204;SDS011;64986;55.672;37.628;2023-03-31T08:46:13;8.50;;;4.38;;
76204;SDS011;64986;55.672;37.628;2023-03-31T08:48:43;7.75;;;4.25;;
76204;SDS011;64986;55.672;37.628;2023-03-31T08:54:04;7.47;;;4.35;;
76204;SDS011;64986;55.672;37.628;2023-03-31T08:56:37;7.75;;;4.50;;
76204;SDS011;64986;55.672;37.628;2023-03-31T08:59:15;12.65;;;5.32;;
76204;SDS011;64986;55.672;37.628;2023-03-31T09:02:00;10.40;;;4.50;;
76204;SDS011;64986;55.672;37.628;2023-03-31T09:10:30;8.05;;;4.60;;
76204;SDS011;64986;55.672;37.628;2023-03-31T09:15:40;21.88;;;5.90;;
76204;SDS011;64986;55.672;37.628;2023-03-31T09:18:35;7.20;;;3.90;;
76204;SDS011;64986;55.672;37.628;2023-03-31T09:21:14;6.70;;;3.55;;
76204;SDS011;64986;55.672;37.628;2023-03-31T09:34:45;5.05;;;3.65;;
76204;SDS011;64986;55.672;37.628;2023-03-31T09:37:14;14.05;;;4.32;;
76204;SDS011;64986;55.672;37.628;2023-03-31T09:39:40;16.73;;;5.10;;
76204;SDS011;64986;55.672;37.628;2023-03-31T09:42:06;13.00;;;3.63;;
76204;SDS011;64986;55.672;37.628;2023-03-31T09:44:45;10.98;;;4.18;;
76204;SDS011;64986;55.672;37.628;2023-03-31T09:47:24;12.88;;;3.90;;
76204;SDS011;64986;55.672;37.628;2023-03-31T09:50:13;8.98;;;3.28;;
76204;SDS011;64986;55.672;37.628;2023-03-31T09:52:42;7.95;;;3.42;;
76204;SDS011;64986;55.672;37.628;2023-03-31T09:58:12;6.55;;;3.00;;
76204;SDS011;64986;55.672;37.628;2023-03-31T10:00:40;15.57;;;3.83;;
76204;SDS011;64986;55.672;37.628;2023-03-31T10:03:09;5.32;;;2.80;;
76204;SDS011;64986;55.672;37.628;2023-03-31T10:05:48;5.65;;;3.03;;
76204;SDS011;64986;55.672;37.628;2023-03-31T10:10:45;6.75;;;3.78;;
76204;SDS011;64986;55.672;37.628;2023-03-31T10:13:24;11.10;;;3.40;;
76204;SDS011;64986;55.672;37.628;2023-03-31T10:16:03;7.38;;;3.13;;
76204;SDS011;64986;55.672;37.628;2023-03-31T10:18:39;9.35;;;3.90;;
76204;SDS011;64986;55.672;37.628;2023-03-31T10:21:14;6.90;;;2.75;;
76204;SDS011;64986;55.672;37.628;2023-03-31T10:23:45;10.13;;;3.00;;
76204;SDS011;64986;55.672;37.628;2023-03-31T10:26:13;3.88;;;3.15;;
76204;SDS011;64986;55.672;37.628;2023-03-31T10:29:00;5.68;;;3.13;;
76204;SDS011;64986;55.672;37.628;2023-03-31T10:31:33;8.68;;;3.42;;
76204;SDS011;64986;55.672;37.628;2023-03-31T10:34:08;5.75;;;2.45;;
76204;SDS011;64986;55.672;37.628;2023-03-31T10:36:39;7.82;;;2.42;;
76204;SDS011;64986;55.672;37.628;2023-03-31T10:39:11;5.90;;;2.45;;
76204;SDS011;64986;55.672;37.628;2023-03-31T10:41:39;14.98;;;3.22;;
76204;SDS011;64986;55.672;37.628;2023-03-31T10:44:05;7.10;;;2.97;;
76204;SDS011;64986;55.672;37.628;2023-03-31T10:46:50;9.35;;;2.90;;
76204;SDS011;64986;55.672;37.628;2023-03-31T10:51:48;9.25;;;3.05;;
76204;SDS011;64986;55.672;37.628;2023-03-31T10:54:16;9.82;;;3.30;;
76204;SDS011;64986;55.672;37.628;2023-03-31T10:56:43;4.68;;;2.20;;
76204;SDS011;64986;55.672;37.628;2023-03-31T11:04:44;12.93;;;2.60;;
76204;SDS011;64986;55.672;37.628;2023-03-31T11:10:07;9.18;;;2.70;;
76204;SDS011;64986;55.672;37.628;2023-03-31T11:12:42;7.53;;;3.00;;
76204;SDS011;64986;55.672;37.628;2023-03-31T11:26:45;3.10;;;2.20;;
76204;SDS011;64986;55.672;37.628;2023-03-31T11:34:50;3.83;;;2.60;;
76204;SDS011;64986;55.672;37.628;2023-03-31T11:37:44;8.30;;;2.92;;
76204;SDS011;64986;55.672;37.628;2023-03-31T11:40:26;4.13;;;2.50;;
76204;SDS011;64986;55.672;37.628;2023-03-31T11:43:15;7.55;;;2.42;;
76204;SDS011;64986;55.672;37.628;2023-03-31T11:45:52;14.57;;;3.83;;
76204;SDS011;64986;55.672;37.628;2023-03-31T11:48:44;12.25;;;4.50;;
76204;SDS011;64986;55.672;37.628;2023-03-31T11:54:09;13.93;;;3.80;;
76204;SDS011;64986;55.672;37.628;2023-03-31T11:56:42;13.93;;;3.42;;
76204;SDS011;64986;55.672;37.628;2023-03-31T11:59:10;6.47;;;3.95;;
76204;SDS011;64986;55.672;37.628;2023-03-31T12:01:46;7.68;;;3.40;;
76204;SDS011;64986;55.672;37.628;2023-03-31T12:12:29;5.80;;;2.60;;
76204;SDS011;64986;55.672;37.628;2023-03-31T12:17:54;4.80;;;2.33;;
76204;SDS011;64986;55.672;37.628;2023-03-31T12:22:56;5.45;;;2.78;;
76204;SDS011;64986;55.672;37.628;2023-03-31T12:25:24;8.82;;;3.42;;
76204;SDS011;64986;55.672;37.628;2023-03-31T12:28:01;5.55;;;3.10;;
76204;SDS011;64986;55.672;37.628;2023-03-31T12:30:32;10.30;;;3.58;;
76204;SDS011;64986;55.672;37.628;2023-03-31T12:33:11;7.60;;;4.82;;
76204;SDS011;64986;55.672;37.628;2023-03-31T12:41:09;8.70;;;3.78;;
76204;SDS011;64986;55.672;37.628;2023-03-31T12:47:31;8.57;;;2.55;;
76204;SDS011;64986;55.672;37.628;2023-03-31T13:03:47;6.78;;;2.70;;
76204;SDS011;64986;55.672;37.628;2023-03-31T13:09:06;5.72;;;3.05;;
76204;SDS011;64986;55.672;37.628;2023-03-31T13:12:28;8.88;;;3.97;;
76204;SDS011;64986;55.672;37.628;2023-03-31T13:14:55;8.05;;;3.03;;
76204;SDS011;64986;55.672;37.628;2023-03-31T13:23:05;4.82;;;3.08;;
76204;SDS011;64986;55.672;37.628;2023-03-31T13:25:50;7.38;;;4.00;;
76204;SDS011;64986;55.672;37.628;2023-03-31T13:28:23;8.77;;;4.10;;
76204;SDS011;64986;55.672;37.628;2023-03-31T13:33:22;5.13;;;3.25;;
76204;SDS011;64986;55.672;37.628;2023-03-31T13:50:03;6.13;;;4.22;;
76204;SDS011;64986;55.672;37.628;2023-03-31T13:58:11;10.40;;;4.28;;
76204;SDS011;64986;55.672;37.628;2023-03-31T14:06:43;6.38;;;4.30;;
76204;SDS011;64986;55.672;37.628;2023-03-31T14:11:46;9.75;;;5.32;;
76204;SDS011;64986;55.672;37.628;2023-03-31T14:14:15;6.05;;;3.35;;
76204;SDS011;64986;55.672;37.628;2023-03-31T14:16:58;5.30;;;4.22;;
76204;SDS011;64986;55.672;37.628;2023-03-31T14:28:27;5.25;;;3.63;;
76204;SDS011;64986;55.672;37.628;2023-03-31T14:38:50;7.30;;;4.78;;
76204;SDS011;64986;55.672;37.628;2023-03-31T14:41:19;5.50;;;4.18;;
76204;SDS011;64986;55.672;37.628;2023-03-31T14:43:53;7.78;;;3.67;;
76204;SDS011;64986;55.672;37.628;2023-03-31T14:46:22;5.68;;;3.92;;
76204;SDS011;64986;55.672;37.628;2023-03-31T14:48:49;9.20;;;4.47;;
76204;SDS011;64986;55.672;37.628;2023-03-31T14:51:16;4.68;;;3.40;;
76204;SDS011;64986;55.672;37.628;2023-03-31T14:53:54;9.68;;;3.45;;
76204;SDS011;64986;55.672;37.628;2023-03-31T14:56:33;8.55;;;4.32;;
76204;SDS011;64986;55.672;37.628;2023-03-31T14:59:03;6.75;;;4.22;;
76204;SDS011;64986;55.672;37.628;2023-03-31T15:01:31;6.25;;;4.28;;
76204;SDS011;64986;55.672;37.628;2023-03-31T15:03:58;5.63;;;3.85;;
76204;SDS011;64986;55.672;37.628;2023-03-31T15:06:25;8.73;;;4.28;;
76204;SDS011;64986;55.672;37.628;2023-03-31T15:08:51;5.53;;;3.58;;
76204;SDS011;64986;55.672;37.628;2023-03-31T15:11:21;6.95;;;3.85;;
76204;SDS011;64986;55.672;37.628;2023-03-31T15:13:48;8.55;;;4.53;;
76204;SDS011;64986;55.672;37.628;2023-03-31T15:16:19;9.35;;;4.55;;
76204;SDS011;64986;55.672;37.628;2023-03-31T15:18:53;8.75;;;4.68;;
76204;SDS011;64986;55.672;37.628;2023-03-31T15:21:20;8.27;;;3.80;;
76204;SDS011;64986;55.672;37.628;2023-03-31T15:23:50;6.22;;;4.68;;
76204;SDS011;64986;55.672;37.628;2023-03-31T15:26:17;5.10;;;3.92;;
76204;SDS011;64986;55.672;37.628;2023-03-31T15:28:53;9.02;;;5.50;;
76204;SDS011;64986;55.672;37.628;2023-03-31T15:31:23;7.50;;;4.30;;
76204;SDS011;64986;55.672;37.628;2023-03-31T15:33:51;8.43;;;4.93;;
76204;SDS011;64986;55.672;37.628;2023-03-31T15:36:17;7.63;;;3.42;;
76204;SDS011;64986;55.672;37.628;2023-03-31T15:38:45;9.30;;;4.72;;
76204;SDS011;64986;55.672;37.628;2023-03-31T15:41:12;5.13;;;3.70;;
76204;SDS011;64986;55.672;37.628;2023-03-31T15:46:11;9.18;;;5.07;;
76204;SDS011;64986;55.672;37.628;2023-03-31T15:48:53;6.13;;;3.83;;
76204;SDS011;64986;55.672;37.628;2023-03-31T15:51:24;5.88;;;3.38;;
76204;SDS011;64986;55.672;37.628;2023-03-31T15:53:50;4.43;;;2.80;;
76204;SDS011;64986;55.672;37.628;2023-03-31T15:59:27;5.05;;;3.08;;
76204;SDS011;64986;55.672;37.628;2023-03-31T16:01:55;5.55;;;3.83;;
76204;SDS011;64986;55.672;37.628;2023-03-31T16:04:24;4.70;;;2.80;;
76204;SDS011;64986;55.672;37.628;2023-03-31T16:12:30;5.97;;;3.63;;
76204;SDS011;64986;55.672;37.628;2023-03-31T16:15:16;6.30;;;4.22;;
76204;SDS011;64986;55.672;37.628;2023-03-31T16:17:46;6.70;;;4.53;;
76204;SDS011;64986;55.672;37.628;2023-03-31T16:20:18;8.43;;;4.85;;
76204;SDS011;64986;55.672;37.628;2023-03-31T16:22:47;7.85;;;4.63;;
76204;SDS011;64986;55.672;37.628;2023-03-31T16:25:17;9.77;;;4.18;;
76204;SDS011;64986;55.672;37.628;2023-03-31T16:27:47;7.55;;;4.45;;
76204;SDS011;64986;55.672;37.628;2023-03-31T16:30:16;7.38;;;4.80;;
76204;SDS011;64986;55.672;37.628;2023-03-31T16:33:00;8.93;;;4.20;;
76204;SDS011;64986;55.672;37.628;2023-03-31T16:35:29;8.93;;;6.15;;
76204;SDS011;64986;55.672;37.628;2023-03-31T16:37:56;9.43;;;5.68;;
76204;SDS011;64986;55.672;37.628;2023-03-31T16:40:22;6.25;;;4.05;;
76204;SDS011;64986;55.672;37.628;2023-03-31T16:42:48;5.65;;;3.83;;
76204;SDS011;64986;55.672;37.628;2023-03-31T16:45:30;5.35;;;3.90;;
76204;SDS011;64986;55.672;37.628;2023-03-31T16:47:55;9.20;;;4.22;;
76204;SDS011;64986;55.672;37.628;2023-03-31T16:50:21;4.57;;;2.90;;
76204;SDS011;64986;55.672;37.628;2023-03-31T16:52:46;5.85;;;3.75;;
76204;SDS011;64986;55.672;37.628;2023-03-31T16:55:12;11.20;;;4.90;;
76204;SDS011;64986;55.672;37.628;2023-03-31T16:57:37;7.47;;;3.45;;
76204;SDS011;64986;55.672;37.628;2023-03-31T17:00:03;9.80;;;5.22;;
76204;SDS011;64986;55.672;37.628;2023-03-31T17:02:29;4.78;;;3.28;;
76204;SDS011;64986;55.672;37.628;2023-03-31T17:04:55;6.55;;;3.42;;
76204;SDS011;64986;55.672;37.628;2023-03-31T17:07:21;5.13;;;3.25;;
76204;SDS011;64986;55.672;37.628;2023-03-31T17:09:46;7.05;;;3.78;;
76204;SDS011;64986;55.672;37.628;2023-03-31T17:12:12;5.40;;;3.85;;
76204;SDS011;64986;55.672;37.628;2023-03-31T17:14:37;4.38;;;3.38;;
76204;SDS011;64986;55.672;37.628;2023-03-31T17:17:03;5.38;;;3.45;;
76204;SDS011;64986;55.672;37.628;2023-03-31T17:19:29;7.32;;;4.60;;
76204;SDS011;64986;55.672;37.628;2023-03-31T17:21:54;8.13;;;4.15;;
76204;SDS011;64986;55.672;37.628;2023-03-31T17:24:21;6.35;;;4.00;;
76204;SDS011;64986;55.672;37.628;2023-03-31T17:26:46;5.75;;;3.92;;
76204;SDS011;64986;55.672;37.628;2023-03-31T17:29:12;6.38;;;3.80;;
76204;SDS011;64986;55.672;37.628;2023-03-31T17:31:37;7.63;;;4.53;;
76204;SDS011;64986;55.672;37.628;2023-03-31T17:34:03;7.38;;;4.75;;
76204;SDS011;64986;55.672;37.628;2023-03-31T17:36:28;6.40;;;3.95;;
76204;SDS011;64986;55.672;37.628;2023-03-31T17:38:54;6.88;;;3.80;;
76204;SDS011;64986;55.672;37.628;2023-03-31T17:41:19;6.47;;;4.55;;
76204;SDS011;64986;55.672;37.628;2023-03-31T17:43:45;6.00;;;4.03;;
76204;SDS011;64986;55.672;37.628;2023-03-31T17:46:12;7.88;;;4.65;;
76204;SDS011;64986;55.672;37.628;2023-03-31T17:48:39;6.32;;;4.20;;
76204;SDS011;64986;55.672;37.628;2023-03-31T17:51:06;6.53;;;3.72;;
76204;SDS011;64986;55.672;37.628;2023-03-31T17:53:34;5.72;;;4.45;;
76204;SDS011;64986;55.672;37.628;2023-03-31T17:56:00;6.10;;;3.72;;
76204;SDS011;64986;55.672;37.628;2023-03-31T17:58:28;6.60;;;4.85;;
76204;SDS011;64986;55.672;37.628;2023-03-31T18:00:53;7.10;;;4.45;;
76204;SDS011;64986;55.672;37.628;2023-03-31T18:03:19;7.10;;;4.45;;
76204;SDS011;64986;55.672;37.628;2023-03-31T18:05:45;6.32;;;4.28;;
76204;SDS011;64986;55.672;37.628;2023-03-31T18:08:10;7.30;;;4.57;;
76204;SDS011;64986;55.672;37.628;2023-03-31T18:10:36;9.15;;;4.70;;
76204;SDS011;64986;55.672;37.628;2023-03-31T18:13:02;4.72;;;3.60;;
76204;SDS011;64986;55.672;37.628;2023-03-31T18:15:28;6.50;;;4.18;;